createdAt,value
2022-10-03T00:00:17.103Z,23.70
2022-10-03T00:03:26.731Z,23.80
2022-10-03T00:06:10.664Z,23.80
2022-10-03T00:09:06.776Z,23.90
2022-10-03T00:11:50.348Z,23.80
2022-10-03T00:14:37.657Z,24.00
2022-10-03T00:17:16.225Z,24.00
2022-10-03T00:19:59.442Z,24.00
2022-10-03T00:22:44.141Z,24.00
2022-10-03T00:25:37.125Z,24.00
2022-10-03T00:28:21.800Z,23.90
2022-10-03T00:31:17.974Z,23.80
2022-10-03T00:34:07.445Z,23.80
2022-10-03T00:36:52.105Z,23.80
2022-10-03T00:39:46.143Z,23.80
2022-10-03T00:42:55.248Z,23.80
2022-10-03T00:46:19.755Z,23.80
2022-10-03T00:49:28.241Z,24.10
2022-10-03T00:52:17.505Z,24.00
2022-10-03T00:55:05.691Z,24.00
2022-10-03T00:58:01.389Z,24.10
2022-10-03T01:00:37.805Z,24.20
2022-10-03T01:03:32.861Z,24.10
2022-10-03T01:06:31.273Z,24.10
2022-10-03T01:09:20.352Z,24.20
2022-10-03T01:12:13.380Z,24.30
2022-10-03T01:15:08.562Z,24.40
2022-10-03T01:17:53.855Z,24.50
2022-10-03T01:20:45.070Z,24.50
2022-10-03T01:24:02.267Z,24.40
2022-10-03T01:26:55.757Z,24.50
2022-10-03T01:30:14.927Z,24.70
2022-10-03T01:32:57.201Z,24.70
2022-10-03T01:35:44.626Z,24.80
2022-10-03T01:38:26.892Z,24.80
2022-10-03T01:41:08.413Z,24.90
2022-10-03T01:43:52.249Z,24.70
2022-10-03T01:46:38.077Z,24.60
2022-10-03T01:49:23.109Z,24.80
2022-10-03T01:52:09.078Z,24.70
2022-10-03T01:54:51.935Z,24.60
2022-10-03T01:57:33.928Z,24.90
2022-10-03T02:00:15.890Z,24.90
2022-10-03T02:03:01.377Z,24.90
2022-10-03T02:05:47.367Z,24.90
2022-10-03T02:08:32.998Z,24.80
2022-10-03T02:11:10.236Z,24.90
2022-10-03T02:13:52.524Z,24.90
2022-10-03T02:16:38.318Z,24.60
2022-10-03T02:19:30.987Z,24.90
2022-10-03T02:22:07.153Z,24.90
2022-10-03T02:24:52.928Z,24.70
2022-10-03T02:27:54.928Z,24.70
2022-10-03T02:30:36.681Z,24.80
2022-10-03T02:33:37.488Z,24.60
2022-10-03T02:36:43.112Z,24.70
2022-10-03T02:40:02.641Z,24.60
2022-10-03T02:43:18.146Z,24.70
2022-10-03T02:46:18.774Z,24.80
2022-10-03T02:49:29.685Z,24.70
2022-10-03T02:52:47.838Z,24.60
2022-10-03T02:55:54.056Z,24.80
2022-10-03T02:59:00.744Z,24.70
2022-10-03T03:02:04.740Z,24.80
2022-10-03T03:05:22.686Z,24.60
2022-10-03T03:08:35.051Z,24.70
2022-10-03T03:11:39.920Z,24.90
2022-10-03T03:15:00.744Z,24.90
2022-10-03T03:17:43.610Z,24.90
2022-10-03T03:20:35.985Z,24.70
2022-10-03T03:23:33.922Z,24.40
2022-10-03T03:26:39.062Z,23.80
2022-10-03T03:29:25.803Z,23.10
2022-10-03T03:32:06.876Z,22.90
2022-10-03T03:34:51.863Z,22.60
2022-10-03T03:37:34.731Z,22.50
2022-10-03T03:40:33.708Z,22.30
2022-10-03T03:43:27.979Z,22.20
2022-10-03T03:46:17.690Z,22.30
2022-10-03T03:49:15.744Z,22.00
2022-10-03T03:52:00.755Z,22.00
2022-10-03T03:54:59.223Z,22.00
2022-10-03T03:58:04.206Z,21.80
2022-10-03T04:01:07.484Z,21.70
2022-10-03T04:03:59.541Z,21.60
2022-10-03T04:06:48.699Z,21.50
2022-10-03T04:09:54.201Z,21.70
2022-10-03T04:12:48.019Z,21.60
2022-10-03T04:15:56.402Z,21.80
2022-10-03T04:19:04.276Z,21.80
2022-10-03T04:22:00.234Z,21.80
2022-10-03T04:24:50.076Z,21.80
2022-10-03T04:27:58.130Z,21.70
2022-10-03T04:30:44.680Z,21.70
2022-10-03T04:33:35.957Z,21.70
2022-10-03T04:36:33.712Z,21.80
2022-10-03T04:39:20.168Z,21.50
2022-10-03T04:42:04.726Z,21.40
2022-10-03T04:44:55.529Z,21.20
2022-10-03T04:47:38.426Z,21.30
2022-10-03T04:50:38.627Z,21.30
2022-10-03T04:53:28.941Z,21.20
2022-10-03T04:56:19.557Z,21.20
2022-10-03T04:59:01.017Z,21.40
2022-10-03T05:01:44.552Z,21.30
2022-10-03T05:04:37.582Z,21.30
2022-10-03T05:07:27.918Z,21.50
2022-10-03T05:10:13.368Z,21.40
2022-10-03T05:13:00.314Z,21.50
2022-10-03T05:15:43.050Z,21.70
2022-10-03T05:18:27.017Z,21.60
2022-10-03T05:21:19.263Z,21.60
2022-10-03T05:24:06.906Z,21.70
2022-10-03T05:26:54.152Z,22.10
2022-10-03T05:29:40.278Z,22.30
2022-10-03T05:32:29.476Z,22.20
2022-10-03T05:35:31.804Z,22.00
2022-10-03T05:38:38.466Z,22.00
2022-10-03T05:41:26.340Z,22.00
2022-10-03T05:44:14.355Z,22.00
2022-10-03T05:47:03.731Z,22.10
2022-10-03T05:49:59.494Z,21.90
2022-10-03T05:53:06.931Z,22.20
2022-10-03T05:56:01.684Z,22.10
2022-10-03T05:59:01.955Z,22.40
2022-10-03T06:02:21.238Z,22.60
2022-10-03T06:05:32.923Z,22.60
2022-10-03T06:08:43.751Z,22.60
2022-10-03T06:11:51.408Z,22.80
2022-10-03T06:15:19.221Z,23.00
2022-10-03T06:18:23.402Z,23.10
2022-10-03T06:21:51.370Z,23.30
2022-10-03T06:24:54.826Z,23.20
2022-10-03T06:28:06.947Z,23.00
2022-10-03T06:31:28.215Z,23.00
2022-10-03T06:34:42.155Z,23.40
2022-10-03T06:37:53.633Z,23.40
2022-10-03T06:41:18.360Z,23.10
2022-10-03T06:44:55.447Z,22.90
2022-10-03T06:48:14.946Z,23.00
2022-10-03T06:51:13.605Z,22.90
2022-10-03T06:54:18.795Z,22.90
2022-10-03T06:57:30.547Z,22.80
2022-10-03T07:00:22.525Z,22.90
2022-10-03T07:03:30.209Z,23.20
2022-10-03T07:06:37.165Z,23.30
2022-10-03T07:10:02.483Z,23.10
2022-10-03T07:13:10.831Z,22.90
2022-10-03T07:16:42.124Z,23.10
2022-10-03T07:19:46.098Z,23.10
2022-10-03T07:23:01.437Z,22.90
2022-10-03T07:26:22.927Z,22.80
2022-10-03T07:29:24.368Z,22.70
2022-10-03T07:32:35.082Z,22.40
2022-10-03T07:36:00.492Z,22.40
2022-10-03T07:39:11.281Z,22.10
2022-10-03T07:42:19.965Z,22.10
2022-10-03T07:45:36.000Z,22.00
2022-10-03T07:48:49.789Z,22.10
2022-10-03T07:51:37.388Z,21.90
2022-10-03T07:54:47.604Z,22.00
2022-10-03T07:58:13.319Z,21.90
2022-10-03T08:01:19.300Z,21.90
2022-10-03T08:04:34.093Z,22.10
2022-10-03T08:07:39.714Z,21.90
2022-10-03T08:10:40.892Z,21.60
2022-10-03T08:13:39.069Z,21.80
2022-10-03T08:16:33.806Z,21.70
2022-10-03T08:19:55.770Z,21.60
2022-10-03T08:23:18.886Z,21.60
2022-10-03T08:26:14.773Z,21.60
2022-10-03T08:29:11.243Z,21.70
2022-10-03T08:32:21.626Z,21.70
2022-10-03T08:35:40.307Z,21.50
2022-10-03T08:38:46.311Z,21.50
2022-10-03T08:42:00.437Z,21.50
2022-10-03T08:45:13.899Z,21.40
2022-10-03T08:48:35.912Z,21.30
2022-10-03T08:51:50.946Z,21.20
2022-10-03T08:55:03.788Z,21.30
2022-10-03T08:58:11.138Z,21.40
2022-10-03T09:01:21.821Z,21.40
2022-10-03T09:04:49.355Z,21.30
2022-10-03T09:08:12.229Z,21.20
2022-10-03T09:11:17.590Z,21.30
2022-10-03T09:14:20.419Z,21.10
2022-10-03T09:17:30.331Z,21.00
2022-10-03T09:20:42.903Z,21.00
2022-10-03T09:23:51.123Z,21.00
2022-10-03T09:27:01.463Z,20.80
2022-10-03T09:30:26.140Z,20.90
2022-10-03T09:33:37.011Z,20.90
2022-10-03T09:36:42.033Z,20.90
2022-10-03T09:40:04.644Z,20.80
2022-10-03T09:43:12.609Z,20.80
2022-10-03T09:46:23.663Z,20.70
2022-10-03T09:49:49.559Z,20.80
2022-10-03T09:55:54.609Z,20.60
2022-10-03T09:59:06.866Z,20.60
2022-10-03T10:01:48.573Z,20.60
2022-10-03T10:04:55.201Z,20.60
2022-10-03T10:08:07.209Z,20.70
2022-10-03T10:11:35.253Z,20.60
2022-10-03T10:14:35.209Z,20.60
2022-10-03T10:18:01.316Z,20.60
2022-10-03T10:21:03.336Z,20.50
2022-10-03T10:23:59.253Z,20.50
2022-10-03T10:27:16.209Z,20.50
2022-10-03T10:30:13.693Z,20.30
2022-10-03T10:33:48.165Z,20.40
2022-10-03T10:37:00.525Z,20.30
2022-10-03T10:40:01.893Z,20.20
2022-10-03T10:43:21.683Z,20.30
2022-10-03T10:46:36.466Z,20.30
2022-10-03T10:49:54.413Z,20.40
2022-10-03T10:53:10.554Z,20.40
2022-10-03T10:56:19.438Z,20.30
2022-10-03T10:59:42.995Z,20.40
2022-10-03T11:03:13.349Z,20.30
2022-10-03T11:06:30.411Z,20.40
2022-10-03T11:09:51.718Z,20.40
2022-10-03T11:13:15.282Z,20.40
2022-10-03T11:16:40.142Z,20.20
2022-10-03T11:19:50.000Z,20.20
2022-10-03T11:23:08.947Z,20.30
2022-10-03T11:26:30.043Z,20.40
2022-10-03T11:29:42.489Z,20.30
2022-10-03T11:32:56.898Z,20.30
2022-10-03T11:36:13.666Z,20.20
2022-10-03T11:38:57.772Z,20.40
2022-10-03T11:41:45.661Z,20.30
2022-10-03T11:44:38.165Z,20.30
2022-10-03T11:48:03.590Z,20.40
2022-10-03T11:51:02.414Z,20.40
2022-10-03T11:53:52.005Z,20.30
2022-10-03T11:56:47.435Z,20.40
2022-10-03T12:00:06.408Z,20.30
2022-10-03T12:03:18.025Z,20.30
2022-10-03T12:06:29.176Z,20.40
2022-10-03T12:09:28.023Z,20.40
2022-10-03T12:12:13.493Z,20.40
2022-10-03T12:15:04.658Z,20.50
2022-10-03T12:17:50.453Z,20.50
2022-10-03T12:20:31.970Z,20.40
2022-10-03T12:23:32.488Z,20.30
2022-10-03T12:26:17.537Z,20.40
2022-10-03T12:29:00.178Z,20.30
2022-10-03T12:31:45.019Z,20.30
2022-10-03T12:34:39.892Z,20.40
2022-10-03T12:37:43.033Z,20.40
2022-10-03T12:40:40.457Z,20.20
2022-10-03T12:43:37.780Z,20.40
2022-10-03T12:46:18.312Z,20.30
2022-10-03T12:49:05.124Z,20.40
2022-10-03T12:51:59.723Z,20.40
2022-10-03T12:54:55.683Z,20.60
2022-10-03T12:57:59.519Z,20.60
2022-10-03T13:00:46.404Z,20.60
2022-10-03T13:03:36.247Z,20.50
2022-10-03T13:07:07.633Z,20.60
2022-10-03T13:10:19.058Z,20.60
2022-10-03T13:13:11.978Z,20.70
2022-10-03T13:16:05.673Z,20.60
2022-10-03T13:19:00.207Z,20.70
2022-10-03T13:21:56.496Z,20.60
2022-10-03T13:24:41.944Z,20.60
2022-10-03T13:27:53.307Z,20.60
2022-10-03T13:30:35.232Z,20.60
2022-10-03T13:33:23.115Z,20.40
2022-10-03T13:36:09.903Z,20.60
2022-10-03T13:39:09.371Z,20.50
2022-10-03T13:42:25.060Z,20.60
2022-10-03T13:45:03.621Z,20.60
2022-10-03T13:47:53.299Z,20.60
2022-10-03T13:50:42.639Z,20.60
2022-10-03T13:53:26.408Z,20.60
2022-10-03T13:56:07.834Z,20.60
2022-10-03T13:59:00.044Z,20.50
2022-10-03T14:02:01.756Z,20.60
2022-10-03T14:05:10.351Z,20.60
2022-10-03T14:08:04.734Z,20.60
2022-10-03T14:11:24.488Z,20.70
2022-10-03T14:14:38.942Z,20.80
2022-10-03T14:17:35.287Z,20.70
2022-10-03T14:20:40.627Z,20.70
2022-10-03T14:23:34.329Z,20.70
2022-10-03T14:26:20.673Z,20.60
2022-10-03T14:29:06.126Z,20.50
2022-10-03T14:31:57.252Z,20.50
2022-10-03T14:34:54.435Z,20.50
2022-10-03T14:37:47.268Z,20.50
2022-10-03T14:40:29.649Z,20.60
2022-10-03T14:43:23.869Z,20.60
2022-10-03T14:46:05.492Z,20.60
2022-10-03T14:48:46.065Z,20.60
2022-10-03T14:51:28.777Z,20.60
2022-10-03T14:54:17.228Z,20.60
2022-10-03T14:57:11.231Z,20.40
2022-10-03T15:00:07.529Z,20.50
2022-10-03T15:02:52.916Z,20.70
2022-10-03T15:05:41.431Z,20.80
2022-10-03T15:08:29.369Z,20.90
2022-10-03T15:11:09.393Z,20.80
2022-10-03T15:13:58.189Z,20.80
2022-10-03T15:16:51.125Z,20.80
2022-10-03T15:19:35.094Z,20.80
2022-10-03T15:22:35.089Z,20.90
2022-10-03T15:25:20.251Z,21.00
2022-10-03T15:27:59.941Z,21.00
2022-10-03T15:30:43.094Z,21.00
2022-10-03T15:33:30.796Z,21.00
2022-10-03T15:36:17.618Z,21.00
2022-10-03T15:39:01.830Z,21.10
2022-10-03T15:41:43.681Z,21.00
2022-10-03T15:44:35.073Z,21.00
2022-10-03T15:47:15.717Z,21.10
2022-10-03T15:49:57.774Z,21.10
2022-10-03T15:52:54.092Z,21.10
2022-10-03T15:55:35.884Z,21.00
2022-10-03T15:58:27.859Z,21.00
2022-10-03T16:01:19.244Z,21.00
2022-10-03T16:04:06.065Z,20.90
2022-10-03T16:06:54.345Z,20.80
2022-10-03T16:09:39.970Z,20.80
2022-10-03T16:12:47.606Z,20.80
2022-10-03T16:15:28.076Z,20.80
2022-10-03T16:18:37.312Z,20.90
2022-10-03T16:21:20.511Z,21.00
2022-10-03T16:24:02.111Z,21.00
2022-10-03T16:26:46.670Z,21.10
2022-10-03T16:29:27.742Z,21.10
2022-10-03T16:32:08.780Z,21.10
2022-10-03T16:34:50.224Z,21.10
2022-10-03T16:37:31.164Z,21.00
2022-10-03T16:40:10.983Z,21.10
2022-10-03T16:42:50.833Z,21.00
2022-10-03T16:45:33.119Z,20.90
2022-10-03T16:48:39.420Z,20.80
2022-10-03T16:51:24.715Z,20.90
2022-10-03T16:54:01.012Z,20.90
2022-10-03T16:56:40.733Z,20.90
2022-10-03T16:59:25.286Z,20.90
2022-10-03T17:02:04.743Z,20.90
2022-10-03T17:04:42.815Z,20.90
2022-10-03T17:07:26.871Z,20.90
2022-10-03T17:10:03.465Z,20.90
2022-10-03T17:12:45.593Z,20.90
2022-10-03T17:15:31.109Z,20.90
2022-10-03T17:18:25.815Z,20.90
2022-10-03T17:21:09.669Z,20.90
2022-10-03T17:23:55.145Z,20.90
2022-10-03T17:26:34.789Z,20.90
2022-10-03T17:29:28.457Z,20.90
2022-10-03T17:32:14.375Z,20.80
2022-10-03T17:34:51.648Z,20.80
2022-10-03T17:37:56.344Z,20.80
2022-10-03T17:40:52.473Z,20.80
2022-10-03T17:43:37.558Z,20.80
2022-10-03T17:46:26.981Z,20.80
2022-10-03T17:49:21.099Z,20.80
2022-10-03T17:51:59.202Z,20.70
2022-10-03T17:54:40.668Z,20.60
2022-10-03T17:57:22.548Z,20.60
2022-10-03T18:00:08.705Z,20.60
2022-10-03T18:02:51.872Z,20.60
2022-10-03T18:05:29.858Z,20.50
2022-10-03T18:08:12.993Z,20.50
2022-10-03T18:10:53.693Z,20.50
2022-10-03T18:13:38.285Z,20.60
2022-10-03T18:16:26.590Z,20.60
2022-10-03T18:19:23.114Z,20.70
2022-10-03T18:22:05.279Z,20.70
2022-10-03T18:24:54.937Z,20.70
2022-10-03T18:28:12.826Z,20.70
2022-10-03T18:30:54.990Z,20.70
2022-10-03T18:33:33.867Z,20.80
2022-10-03T18:36:15.103Z,20.70
2022-10-03T18:38:51.428Z,20.70
2022-10-03T18:41:26.050Z,20.60
2022-10-03T18:44:02.063Z,20.60
2022-10-03T18:46:44.212Z,20.70
2022-10-03T18:49:33.561Z,20.70
2022-10-03T18:52:16.774Z,20.60
2022-10-03T18:55:04.255Z,20.60
2022-10-03T18:57:42.355Z,20.60
2022-10-03T19:00:23.222Z,20.70
2022-10-03T19:03:01.980Z,20.70
2022-10-03T19:05:38.806Z,20.80
2022-10-03T19:08:21.601Z,20.70
2022-10-03T19:10:57.896Z,20.80
2022-10-03T19:13:39.252Z,20.80
2022-10-03T19:16:28.075Z,20.80
2022-10-03T19:19:15.365Z,20.70
2022-10-03T19:21:50.224Z,20.60
2022-10-03T19:24:53.462Z,20.70
2022-10-03T19:27:33.707Z,20.60
2022-10-03T19:30:10.391Z,20.60
2022-10-03T19:33:01.089Z,20.60
2022-10-03T19:35:40.333Z,20.60
2022-10-03T19:38:22.414Z,20.50
2022-10-03T19:41:03.768Z,20.60
2022-10-03T19:43:44.356Z,20.60
2022-10-03T19:46:38.509Z,20.60
2022-10-03T19:49:49.295Z,20.60
2022-10-03T19:52:34.057Z,20.60
2022-10-03T19:55:16.128Z,20.70
2022-10-03T19:57:55.148Z,20.50
2022-10-03T20:00:34.813Z,20.50
2022-10-03T20:03:23.169Z,20.50
2022-10-03T20:06:05.910Z,20.50
2022-10-03T20:08:47.979Z,20.60
2022-10-03T20:11:45.087Z,20.60
2022-10-03T20:14:21.427Z,20.60
2022-10-03T20:16:59.079Z,20.50
2022-10-03T20:19:49.978Z,20.50
2022-10-03T20:22:28.251Z,20.60
2022-10-03T20:25:04.912Z,20.50
2022-10-03T20:27:45.494Z,20.50
2022-10-03T20:30:30.852Z,20.50
2022-10-03T20:33:05.154Z,20.50
2022-10-03T20:35:48.897Z,20.40
2022-10-03T20:38:30.673Z,20.40
2022-10-03T20:41:13.492Z,20.40
2022-10-03T20:43:51.064Z,20.40
2022-10-03T20:46:31.578Z,20.40
2022-10-03T20:49:22.402Z,20.30
2022-10-03T20:52:04.341Z,20.30
2022-10-03T20:54:51.341Z,20.30
2022-10-03T20:57:30.305Z,20.10
2022-10-03T21:00:11.857Z,20.10
2022-10-03T21:02:51.782Z,20.20
2022-10-03T21:05:28.667Z,20.20
2022-10-03T21:08:04.551Z,20.10
2022-10-03T21:10:43.743Z,19.90
2022-10-03T21:13:25.768Z,19.90
2022-10-03T21:16:02.025Z,20.00
2022-10-03T21:18:39.247Z,20.00
2022-10-03T21:21:19.148Z,19.90
2022-10-03T21:23:58.560Z,19.80
2022-10-03T21:26:36.547Z,19.80
2022-10-03T21:29:42.315Z,19.80
2022-10-03T21:32:28.107Z,19.80
2022-10-03T21:35:08.614Z,19.80
2022-10-03T21:37:53.139Z,19.80
2022-10-03T21:40:55.642Z,19.70
2022-10-03T21:43:46.477Z,19.80
2022-10-03T21:46:32.881Z,19.80
2022-10-03T21:49:32.606Z,19.80
2022-10-03T21:52:26.514Z,19.70
2022-10-03T21:55:33.612Z,19.60
2022-10-03T21:58:28.259Z,19.70
2022-10-03T22:01:13.367Z,19.50
2022-10-03T22:03:55.601Z,19.60
2022-10-03T22:06:30.219Z,19.60
2022-10-03T22:09:07.370Z,19.60
2022-10-03T22:11:46.299Z,19.50
2022-10-03T22:14:33.250Z,19.50
2022-10-03T22:17:13.968Z,19.40
2022-10-03T22:19:54.518Z,19.40
2022-10-03T22:22:51.092Z,19.40
2022-10-03T22:25:50.065Z,19.50
2022-10-03T22:28:30.891Z,19.40
2022-10-03T22:31:14.575Z,19.50
2022-10-03T22:34:07.117Z,19.40
2022-10-03T22:36:44.268Z,19.50
2022-10-03T22:39:23.239Z,19.30
2022-10-03T22:42:00.252Z,19.30
2022-10-03T22:44:36.581Z,19.30
2022-10-03T22:47:18.654Z,19.30
2022-10-03T22:50:00.005Z,19.10
2022-10-03T22:52:39.340Z,19.20
2022-10-03T22:55:16.458Z,19.20
2022-10-03T22:57:51.142Z,19.20
2022-10-03T23:00:29.106Z,19.30
2022-10-03T23:03:13.910Z,19.30
2022-10-03T23:06:13.544Z,19.30
2022-10-03T23:08:56.135Z,19.30
2022-10-03T23:11:32.856Z,19.50
2022-10-03T23:14:14.463Z,19.40
2022-10-03T23:16:58.313Z,19.50
2022-10-03T23:19:44.189Z,19.50
2022-10-03T23:22:22.522Z,19.50
2022-10-03T23:25:03.481Z,19.40
2022-10-03T23:27:54.861Z,19.40
2022-10-03T23:30:53.622Z,19.40
2022-10-03T23:33:56.305Z,19.40
2022-10-03T23:36:35.394Z,19.60
2022-10-03T23:39:32.900Z,19.60
2022-10-03T23:42:13.726Z,19.70
2022-10-03T23:44:55.341Z,19.70
2022-10-03T23:47:35.391Z,19.80
2022-10-03T23:50:12.174Z,19.80
2022-10-03T23:52:54.894Z,19.80
2022-10-03T23:55:33.892Z,19.90
2022-10-03T23:58:28.299Z,20.00
